Time;durP1;ratioP1;P1;durP2;ratioP2;P2;SDS_P1;SDS_P2;PMS_P1;PMS_P2;Temp;Humidity;BMP_temperature;BMP_pressure;BME280_temperature;BME280_humidity;BME280_pressure;Samples;Min_cycle;Max_cycle;Signal;HPM_P1;HPM_P2
2021/04/05 00:00:24;;;;;;;8.63;3.60;;;8.90;99.90;;;;;;5019954;28;20018;-75
2021/04/05 00:02:50;;;;;;;7.60;4.10;;;8.80;99.90;;;;;;5012170;28;20076;-75
2021/04/05 00:05:18;;;;;;;6.47;4.35;;;8.80;99.90;;;;;;4997659;28;20028;-78
2021/04/05 00:07:45;;;;;;;4.80;3.72;;;8.70;99.90;;;;;;4993623;28;20021;-78
2021/04/05 00:10:14;;;;;;;9.15;3.75;;;8.70;99.90;;;;;;5015760;28;20029;-76
2021/04/05 00:12:40;;;;;;;6.72;3.90;;;8.70;99.90;;;;;;5013788;28;20022;-76
2021/04/05 00:15:08;;;;;;;6.07;4.13;;;8.60;99.90;;;;;;5016724;28;20084;-77
2021/04/05 00:17:38;;;;;;;10.02;4.60;;;8.60;99.90;;;;;;5003855;28;20042;-76
2021/04/05 00:20:20;;;;;;;8.60;4.28;;;8.50;99.90;;;;;;4998958;28;20022;-75
2021/04/05 00:22:46;;;;;;;3.67;3.20;;;8.50;99.90;;;;;;4999578;28;20464;-75
2021/04/05 00:25:12;;;;;;;9.18;6.07;;;8.50;99.90;;;;;;5014734;28;20268;-76
2021/04/05 00:27:38;;;;;;;8.02;5.32;;;8.50;99.90;;;;;;5012848;28;20038;-76
2021/04/05 00:30:20;;;;;;;7.10;3.95;;;8.40;99.90;;;;;;5015745;28;20025;-76
2021/04/05 00:32:47;;;;;;;3.93;3.60;;;8.40;99.90;;;;;;5017080;28;20056;-76
2021/04/05 00:35:16;;;;;;;9.38;5.07;;;8.50;99.90;;;;;;5017348;28;20095;-76
2021/04/05 00:37:42;;;;;;;4.78;4.25;;;8.60;99.90;;;;;;4998380;28;20038;-76
2021/04/05 00:40:11;;;;;;;6.75;3.97;;;8.70;99.90;;;;;;5001860;28;20028;-77
2021/04/05 00:42:38;;;;;;;5.95;4.78;;;8.70;99.90;;;;;;5016163;28;20029;-76
2021/04/05 00:45:09;;;;;;;7.90;3.92;;;8.70;99.90;;;;;;4992616;28;20080;-77
2021/04/05 00:47:41;;;;;;;4.60;3.28;;;8.60;99.90;;;;;;5017468;28;20025;-76
2021/04/05 00:50:34;;;;;;;5.82;3.38;;;8.50;99.90;;;;;;5016310;28;20038;-77
2021/04/05 00:53:06;;;;;;;4.47;3.15;;;8.40;99.90;;;;;;5016781;28;20033;-75
2021/04/05 00:55:32;;;;;;;7.72;2.92;;;8.40;99.90;;;;;;4997518;28;20029;-77
2021/04/05 00:57:59;;;;;;;9.30;3.80;;;8.30;99.90;;;;;;5016740;28;20033;-77
2021/04/05 01:00:39;;;;;;;5.90;3.55;;;8.40;99.90;;;;;;4999846;28;20031;-76
2021/04/05 01:03:07;;;;;;;6.20;3.47;;;8.20;99.90;;;;;;5016620;28;20101;-76
2021/04/05 01:05:33;;;;;;;5.57;3.08;;;8.20;99.90;;;;;;4999312;28;20026;-76
2021/04/05 01:07:59;;;;;;;4.25;3.85;;;8.20;99.90;;;;;;5002759;28;20030;-76
2021/04/05 01:10:25;;;;;;;4.18;3.00;;;8.30;99.90;;;;;;4998107;28;20561;-75
2021/04/05 01:12:52;;;;;;;3.70;2.92;;;8.20;99.90;;;;;;5004309;28;20029;-75
2021/04/05 01:15:19;;;;;;;13.57;3.55;;;8.30;99.90;;;;;;5003809;28;20113;-76
2021/04/05 01:17:47;;;;;;;4.75;3.08;;;8.30;99.90;;;;;;4998764;28;20030;-76
2021/04/05 01:20:14;;;;;;;5.45;3.55;;;8.20;99.90;;;;;;5006536;28;20110;-77
2021/04/05 01:22:45;;;;;;;4.82;3.22;;;8.30;99.90;;;;;;5007228;28;20073;-76
2021/04/05 01:25:14;;;;;;;6.15;3.55;;;8.20;99.90;;;;;;5007296;28;20093;-77
2021/04/05 01:27:40;;;;;;;4.00;3.00;;;8.30;99.90;;;;;;5027356;28;20040;-76
2021/04/05 01:30:27;;;;;;;12.35;3.35;;;8.30;99.90;;;;;;5026832;28;20034;-76
2021/04/05 01:33:14;;;;;;;4.38;3.38;;;8.20;99.90;;;;;;5008980;28;20030;-76
2021/04/05 01:35:43;;;;;;;5.80;3.17;;;8.10;99.90;;;;;;5009527;28;20030;-76
2021/04/05 01:38:10;;;;;;;6.90;2.75;;;8.10;99.90;;;;;;5013718;28;20030;-77
2021/04/05 01:40:42;;;;;;;4.38;3.25;;;8.00;99.90;;;;;;5014421;28;20022;-77
2021/04/05 01:43:09;;;;;;;5.18;3.17;;;8.00;99.90;;;;;;5026747;28;20022;-76
2021/04/05 01:45:35;;;;;;;8.80;3.38;;;8.10;99.90;;;;;;4990642;28;20030;-75
2021/04/05 01:48:01;;;;;;;6.65;3.83;;;8.00;99.90;;;;;;5009400;28;20443;-76
2021/04/05 01:50:27;;;;;;;7.47;3.50;;;8.00;99.90;;;;;;4989774;28;20038;-75
2021/04/05 01:52:53;;;;;;;7.22;2.78;;;8.00;99.90;;;;;;5018453;28;20201;-76
2021/04/05 01:55:19;;;;;;;3.58;2.67;;;8.00;99.90;;;;;;5009340;28;20490;-76
2021/04/05 01:57:45;;;;;;;6.85;2.78;;;8.00;99.90;;;;;;5023259;28;20073;-76
2021/04/05 02:00:14;;;;;;;5.43;2.15;;;8.00;99.90;;;;;;5019642;28;20506;-76
2021/04/05 02:02:42;;;;;;;6.93;2.83;;;7.90;99.90;;;;;;5019952;28;20041;-76
2021/04/05 02:05:09;;;;;;;4.28;2.40;;;7.80;99.90;;;;;;5018225;28;20095;-75
2021/04/05 02:07:37;;;;;;;5.10;2.78;;;7.80;99.90;;;;;;5014583;28;20030;-76
2021/04/05 02:10:11;;;;;;;4.93;2.90;;;7.90;99.90;;;;;;5001206;28;20029;-75
2021/04/05 02:12:39;;;;;;;7.05;3.42;;;8.00;99.90;;;;;;5008710;28;20038;-75
2021/04/05 02:15:09;;;;;;;5.28;3.97;;;8.10;99.90;;;;;;5019000;28;20034;-75
2021/04/05 02:17:36;;;;;;;4.47;2.75;;;8.00;99.90;;;;;;5016687;28;20037;-75
2021/04/05 02:20:07;;;;;;;6.63;2.85;;;8.00;99.90;;;;;;5006933;28;20155;-75
2021/04/05 02:22:36;;;;;;;2.58;2.38;;;8.00;99.90;;;;;;4989311;28;20049;-75
2021/04/05 02:25:03;;;;;;;4.15;3.67;;;8.10;99.90;;;;;;5000330;28;20423;-75
2021/04/05 02:27:31;;;;;;;7.22;4.43;;;8.00;99.90;;;;;;5002454;28;20018;-75
2021/04/05 02:29:57;;;;;;;4.65;2.85;;;8.00;99.90;;;;;;5000369;28;20053;-75
2021/04/05 02:32:23;;;;;;;4.18;3.65;;;8.10;99.90;;;;;;5018500;28;20304;-75
2021/04/05 02:34:49;;;;;;;8.38;3.55;;;8.10;99.90;;;;;;5002614;28;20393;-75
2021/04/05 02:37:15;;;;;;;3.95;2.72;;;8.00;99.90;;;;;;5006250;28;20030;-76
2021/04/05 02:39:42;;;;;;;9.55;3.45;;;7.90;99.90;;;;;;4983427;28;20030;-75
2021/04/05 02:42:08;;;;;;;4.75;3.30;;;7.90;99.90;;;;;;4996641;28;20026;-75
2021/04/05 02:44:35;;;;;;;3.90;2.92;;;7.80;99.90;;;;;;5001561;28;20030;-76
2021/04/05 02:47:02;;;;;;;4.72;3.58;;;7.90;99.90;;;;;;5011831;28;20046;-75
2021/04/05 02:49:28;;;;;;;2.70;2.38;;;7.90;99.90;;;;;;5010541;28;20030;-76
2021/04/05 02:51:54;;;;;;;5.03;4.53;;;7.80;99.90;;;;;;5004037;28;20030;-75
2021/04/05 02:54:21;;;;;;;4.80;2.80;;;7.90;99.90;;;;;;5012447;28;20029;-76
2021/04/05 02:56:47;;;;;;;5.22;2.40;;;7.90;99.90;;;;;;5011940;28;20033;-76
2021/04/05 02:59:20;;;;;;;5.78;2.63;;;7.90;99.90;;;;;;5008256;28;20109;-76
2021/04/05 03:01:46;;;;;;;5.90;3.47;;;8.00;99.90;;;;;;5011527;28;20050;-75
2021/04/05 03:04:12;;;;;;;6.15;3.13;;;8.00;99.90;;;;;;5007385;28;20022;-76
2021/04/05 03:06:38;;;;;;;7.13;2.80;;;7.90;99.90;;;;;;4997916;28;20037;-75
2021/04/05 03:09:07;;;;;;;4.63;3.50;;;7.90;99.90;;;;;;5012087;28;20129;-76
2021/04/05 03:11:35;;;;;;;7.00;2.45;;;7.90;99.90;;;;;;5011840;28;20491;-75
2021/04/05 03:14:04;;;;;;;6.35;3.13;;;7.90;99.90;;;;;;5011815;28;20480;-74
2021/04/05 03:16:31;;;;;;;4.50;2.85;;;7.90;99.90;;;;;;5012770;28;20025;-76
2021/04/05 03:19:00;;;;;;;3.90;2.10;;;7.90;99.90;;;;;;5015789;28;20030;-76
2021/04/05 03:21:27;;;;;;;5.03;3.08;;;7.90;99.90;;;;;;4975596;28;20033;-76
2021/04/05 03:23:58;;;;;;;5.60;2.45;;;7.80;99.90;;;;;;4991781;28;20033;-76
2021/04/05 03:26:24;;;;;;;6.82;3.15;;;7.80;99.90;;;;;;4998844;28;20018;-75
2021/04/05 03:28:49;;;;;;;5.57;3.08;;;7.80;99.90;;;;;;5011327;28;20036;-76
2021/04/05 03:31:21;;;;;;;7.53;4.18;;;7.60;99.90;;;;;;5000135;28;20039;-75
2021/04/05 03:34:16;;;;;;;4.95;3.35;;;7.60;99.90;;;;;;5010135;28;20034;-76
2021/04/05 03:36:58;;;;;;;2.50;2.30;;;7.40;99.90;;;;;;5006725;28;20052;-76
2021/04/05 03:39:25;;;;;;;10.70;3.00;;;7.30;99.90;;;;;;5005170;28;20033;-76
2021/04/05 03:42:02;;;;;;;3.33;2.58;;;7.40;99.90;;;;;;4991754;28;20023;-76
2021/04/05 03:44:55;;;;;;;2.78;2.45;;;7.20;99.90;;;;;;4992990;28;20480;-76
2021/04/05 03:47:31;;;;;;;2.85;2.45;;;7.10;99.90;;;;;;4991319;28;20034;-76
2021/04/05 03:50:09;;;;;;;6.15;3.30;;;6.90;99.90;;;;;;4994521;28;20022;-76
2021/04/05 03:52:42;;;;;;;5.32;3.00;;;6.80;99.90;;;;;;4990818;28;20030;-76
2021/04/05 03:55:09;;;;;;;4.00;2.50;;;6.90;99.90;;;;;;5000984;28;20059;-77
2021/04/05 03:57:43;;;;;;;13.52;3.78;;;6.90;99.90;;;;;;4991719;28;20030;-74
2021/04/05 04:00:13;;;;;;;7.82;4.38;;;7.00;99.90;;;;;;4991193;28;20023;-76
2021/04/05 04:02:44;;;;;;;13.77;5.85;;;6.90;99.90;;;;;;4990682;28;20062;-75
2021/04/05 04:07:48;;;;;;;11.02;5.63;;;6.90;99.90;;;;;;5010207;28;20521;-76
2021/04/05 04:10:17;;;;;;;7.68;3.97;;;6.90;99.90;;;;;;4988864;28;20057;-76
2021/04/05 04:12:47;;;;;;;5.00;3.00;;;6.90;99.90;;;;;;4991348;28;20113;-76
2021/04/05 04:15:14;;;;;;;4.70;2.50;;;6.80;99.90;;;;;;5010581;28;20053;-78
2021/04/05 04:17:44;;;;;;;4.53;2.63;;;6.60;99.90;;;;;;5004990;28;20038;-76
2021/04/05 04:20:13;;;;;;;7.53;3.47;;;6.60;99.90;;;;;;4983595;28;20467;-75
2021/04/05 04:22:40;;;;;;;4.30;2.92;;;6.50;99.90;;;;;;4990854;28;20485;-76
2021/04/05 04:25:07;;;;;;;4.47;3.15;;;6.50;99.90;;;;;;4991928;28;20349;-77
2021/04/05 04:27:33;;;;;;;3.78;2.55;;;6.30;99.90;;;;;;4988354;28;20038;-76
2021/04/05 04:29:59;;;;;;;6.25;2.67;;;6.30;99.90;;;;;;4992483;28;20030;-75
2021/04/05 04:32:25;;;;;;;5.30;2.63;;;6.40;99.90;;;;;;5002023;28;20046;-76
2021/04/05 04:34:52;;;;;;;3.55;2.70;;;6.50;99.90;;;;;;4991598;28;20057;-75
2021/04/05 04:37:18;;;;;;;5.50;2.92;;;6.50;99.90;;;;;;4990764;28;20054;-75
2021/04/05 04:39:44;;;;;;;3.72;2.85;;;6.30;99.90;;;;;;5005142;28;20018;-75
2021/04/05 04:42:11;;;;;;;6.32;2.75;;;6.20;99.90;;;;;;5003868;28;20026;-75
2021/04/05 04:44:37;;;;;;;3.72;2.42;;;6.20;99.90;;;;;;4990617;28;20388;-75
2021/04/05 04:47:03;;;;;;;4.53;2.88;;;6.30;99.90;;;;;;4999558;28;20026;-74
2021/04/05 04:49:29;;;;;;;3.58;2.78;;;6.30;99.90;;;;;;5012228;28;20100;-75
2021/04/05 04:51:55;;;;;;;6.32;3.10;;;6.20;99.90;;;;;;5006010;28;20128;-77
2021/04/05 04:54:21;;;;;;;4.70;2.92;;;6.20;99.90;;;;;;5010755;28;20436;-74
2021/04/05 04:56:47;;;;;;;4.85;2.88;;;6.30;99.90;;;;;;5012172;28;20028;-76
2021/04/05 04:59:13;;;;;;;3.55;2.42;;;6.40;99.90;;;;;;5013894;28;20492;-76
2021/04/05 05:01:43;;;;;;;2.75;2.30;;;6.50;99.90;;;;;;4983294;28;20029;-77
2021/04/05 05:04:25;;;;;;;9.15;3.35;;;6.40;99.90;;;;;;4994109;28;20377;-77
2021/04/05 05:06:58;;;;;;;3.63;3.08;;;6.40;99.90;;;;;;4994955;28;20101;-76
2021/04/05 05:09:25;;;;;;;4.28;3.55;;;6.20;99.90;;;;;;5006912;28;20026;-77
2021/04/05 05:11:52;;;;;;;3.75;3.10;;;6.20;99.90;;;;;;5013279;28;20365;-75
2021/04/05 05:14:18;;;;;;;4.40;3.25;;;6.20;99.90;;;;;;5011493;28;20509;-75
2021/04/05 05:16:44;;;;;;;4.38;2.42;;;6.10;99.90;;;;;;4994509;28;20121;-77
2021/04/05 05:19:13;;;;;;;6.13;3.30;;;6.20;99.90;;;;;;5011109;28;20026;-75
2021/04/05 05:21:53;;;;;;;3.08;2.70;;;6.30;99.90;;;;;;4995277;28;20114;-76
2021/04/05 05:24:22;;;;;;;9.63;3.60;;;6.20;99.90;;;;;;5006169;28;20022;-76
2021/04/05 05:26:49;;;;;;;3.33;2.70;;;6.20;99.90;;;;;;5008493;28;20425;-75
2021/04/05 05:29:18;;;;;;;8.82;3.75;;;6.30;99.90;;;;;;5009986;28;20037;-76
2021/04/05 05:31:45;;;;;;;3.40;3.05;;;6.30;99.90;;;;;;5011409;28;20097;-76
2021/04/05 05:34:16;;;;;;;7.35;3.40;;;6.50;99.90;;;;;;4976170;28;20033;-76
2021/04/05 05:36:43;;;;;;;7.53;4.10;;;6.50;99.90;;;;;;5011891;28;20101;-75
2021/04/05 05:39:10;;;;;;;4.35;3.80;;;6.50;99.90;;;;;;4984829;28;20030;-76
2021/04/05 05:41:54;;;;;;;5.28;3.90;;;6.50;99.90;;;;;;5011285;28;20029;-76
2021/04/05 05:44:57;;;;;;;7.65;4.22;;;6.60;99.90;;;;;;4997356;28;20026;-75
2021/04/05 05:47:22;;;;;;;6.63;4.97;;;6.70;99.90;;;;;;4993877;28;20480;-77
2021/04/05 05:50:23;;;;;;;11.10;5.47;;;6.90;99.90;;;;;;4982245;28;20022;-76
2021/04/05 05:53:33;;;;;;;13.75;7.57;;;6.90;99.90;;;;;;4971282;28;20038;-76
2021/04/05 05:56:28;;;;;;;12.93;7.53;;;6.80;99.90;;;;;;4992981;28;20524;-76
2021/04/05 05:59:24;;;;;;;9.40;7.63;;;6.90;99.90;;;;;;4994048;28;20102;-76
2021/04/05 06:01:57;;;;;;;12.05;8.98;;;7.10;99.90;;;;;;4999354;28;20463;-77
2021/04/05 06:05:01;;;;;;;8.38;5.85;;;7.20;99.90;;;;;;5011510;28;20113;-75
2021/04/05 06:07:32;;;;;;;9.95;5.55;;;7.30;99.90;;;;;;4985393;28;20022;-75
2021/04/05 06:10:08;;;;;;;8.27;6.15;;;7.20;99.90;;;;;;4975735;28;20457;-76
2021/04/05 06:12:39;;;;;;;10.90;5.38;;;7.30;99.90;;;;;;4992727;28;20417;-75
2021/04/05 06:15:22;;;;;;;6.70;4.63;;;7.30;99.90;;;;;;4994363;28;20034;-77
2021/04/05 06:18:25;;;;;;;8.82;4.35;;;7.30;99.90;;;;;;4992996;28;20062;-77
2021/04/05 06:21:15;;;;;;;4.70;3.88;;;7.50;99.90;;;;;;4996751;28;20028;-77
2021/04/05 06:23:55;;;;;;;9.23;3.97;;;7.60;99.90;;;;;;4995263;28;20029;-75
2021/04/05 06:26:42;;;;;;;14.18;4.28;;;7.80;99.90;;;;;;5004501;28;20505;-76
2021/04/05 06:29:29;;;;;;;5.97;3.42;;;7.90;99.90;;;;;;4993037;28;20038;-76
2021/04/05 06:32:22;;;;;;;5.90;3.22;;;8.10;99.90;;;;;;4992898;28;20567;-76
2021/04/05 06:35:26;;;;;;;12.15;3.50;;;8.10;99.90;;;;;;4994647;28;20088;-76
2021/04/05 06:38:04;;;;;;;3.50;3.03;;;8.20;99.90;;;;;;4992393;28;20034;-76
2021/04/05 06:40:34;;;;;;;4.60;3.22;;;8.30;99.90;;;;;;4996190;28;20065;-78
2021/04/05 06:43:25;;;;;;;3.97;3.33;;;8.50;99.90;;;;;;4992634;28;20022;-76
2021/04/05 06:46:03;;;;;;;4.45;3.00;;;8.50;99.90;;;;;;5002016;28;20030;-77
2021/04/05 06:48:46;;;;;;;5.43;3.42;;;8.70;99.90;;;;;;5012563;28;20094;-76
2021/04/05 06:51:36;;;;;;;6.97;3.15;;;8.90;99.90;;;;;;5011931;28;20093;-76
2021/04/05 06:54:44;;;;;;;3.38;2.97;;;9.20;99.90;;;;;;5010344;28;20776;-77
2021/04/05 06:57:26;;;;;;;6.22;3.00;;;9.40;99.90;;;;;;4991955;28;20052;-77
2021/04/05 07:00:07;;;;;;;4.47;2.60;;;9.50;99.90;;;;;;5011559;28;20439;-76
2021/04/05 07:03:17;;;;;;;2.53;2.30;;;9.70;99.90;;;;;;4992721;28;20034;-78
2021/04/05 07:06:00;;;;;;;12.30;7.28;;;9.80;99.90;;;;;;4977085;28;20053;-76
2021/04/05 07:09:10;;;;;;;7.10;2.22;;;9.90;99.90;;;;;;5004041;28;20026;-77
2021/04/05 07:11:59;;;;;;;4.65;2.47;;;10.10;99.90;;;;;;5007511;28;20104;-78
2021/04/05 07:15:09;;;;;;;11.80;3.47;;;10.30;99.90;;;;;;4999972;28;20077;-77
2021/04/05 07:18:09;;;;;;;3.08;2.78;;;10.40;99.90;;;;;;4968830;28;20293;-77
2021/04/05 07:21:04;;;;;;;5.03;2.90;;;10.60;99.90;;;;;;5004885;28;20025;-77
2021/04/05 07:24:07;;;;;;;4.93;2.88;;;10.60;99.90;;;;;;5012081;28;20022;-78
2021/04/05 07:26:38;;;;;;;2.75;2.42;;;10.70;99.90;;;;;;5008737;28;20475;-78
2021/04/05 07:29:26;;;;;;;8.65;4.47;;;10.80;99.90;;;;;;4997680;28;20365;-75
2021/04/05 07:31:58;;;;;;;5.75;2.88;;;10.90;99.90;;;;;;4974825;28;20049;-76
2021/04/05 07:34:49;;;;;;;3.30;3.00;;;11.10;99.90;;;;;;5005508;28;20127;-76
2021/04/05 07:37:32;;;;;;;6.72;3.60;;;11.30;99.90;;;;;;4973767;28;20038;-76
2021/04/05 07:40:07;;;;;;;4.30;3.38;;;11.30;99.90;;;;;;5007623;28;20030;-77
2021/04/05 07:43:04;;;;;;;6.75;4.35;;;11.50;99.90;;;;;;5010120;28;20022;-77
2021/04/05 07:45:57;;;;;;;5.15;3.50;;;11.60;99.90;;;;;;5014251;28;20018;-77
2021/04/05 07:48:30;;;;;;;6.70;4.18;;;11.50;99.90;;;;;;5011183;28;20026;-77
2021/04/05 07:51:08;;;;;;;7.70;3.38;;;11.60;99.90;;;;;;4993506;28;20085;-77
2021/04/05 07:53:58;;;;;;;5.30;2.90;;;11.60;99.90;;;;;;4998449;28;20030;-71
2021/04/05 07:56:41;;;;;;;4.53;3.08;;;11.70;99.90;;;;;;4998798;28;20107;-71
2021/04/05 07:59:32;;;;;;;8.23;3.60;;;11.50;99.90;;;;;;5022847;28;20040;-70
2021/04/05 08:02:19;;;;;;;5.13;3.40;;;11.50;99.90;;;;;;5019897;28;20355;-70
2021/04/05 08:05:05;;;;;;;6.95;3.65;;;11.50;99.90;;;;;;5024345;28;20025;-69
2021/04/05 08:07:31;;;;;;;10.00;3.28;;;11.30;99.90;;;;;;5007465;28;20026;-69
2021/04/05 08:10:23;;;;;;;6.15;2.72;;;11.30;99.90;;;;;;5003809;28;20045;-70
2021/04/05 08:13:00;;;;;;;4.13;3.20;;;11.20;99.90;;;;;;5014541;28;20049;-69
2021/04/05 08:16:04;;;;;;;3.58;3.28;;;11.10;99.90;;;;;;5006621;28;20495;-69
2021/04/05 08:18:39;;;;;;;7.72;4.43;;;11.10;99.90;;;;;;5003508;28;20038;-68
2021/04/05 08:21:09;;;;;;;4.93;3.63;;;11.30;99.90;;;;;;5015411;28;20061;-68
2021/04/05 08:23:44;;;;;;;6.75;4.97;;;11.40;99.90;;;;;;5003855;28;20045;-66
2021/04/05 08:26:28;;;;;;;6.20;3.88;;;11.40;99.90;;;;;;5009535;28;20361;-69
2021/04/05 08:29:16;;;;;;;5.95;3.75;;;11.40;99.90;;;;;;5009423;28;20069;-70
2021/04/05 08:32:09;;;;;;;4.50;4.10;;;11.30;99.90;;;;;;5015938;28;20040;-71
2021/04/05 08:35:07;;;;;;;4.25;3.50;;;11.20;99.90;;;;;;5016034;28;20159;-70
2021/04/05 08:37:51;;;;;;;5.45;3.38;;;11.30;99.90;;;;;;4997481;28;20121;-70
2021/04/05 08:40:35;;;;;;;3.50;2.85;;;11.30;99.90;;;;;;5022287;28;20480;-73
2021/04/05 08:43:24;;;;;;;3.25;2.50;;;11.40;99.90;;;;;;5016299;28;20022;-70
2021/04/05 08:45:52;;;;;;;7.28;2.80;;;11.30;99.90;;;;;;4995310;28;20168;-71
2021/04/05 08:48:20;;;;;;;2.90;2.45;;;11.40;99.90;;;;;;5019726;28;20026;-70
2021/04/05 08:51:02;;;;;;;7.32;2.92;;;11.50;99.90;;;;;;5004695;28;20044;-70
2021/04/05 08:53:29;;;;;;;;;;;11.60;99.90;;;;;;5004902;28;20041;-70
2021/04/05 08:55:59;;;;;;;5.07;3.50;;;11.50;99.90;;;;;;4995929;28;19997;-71
2021/04/05 08:58:53;;;;;;;5.97;2.65;;;11.60;99.90;;;;;;5012629;28;20024;-70
2021/04/05 09:01:25;;;;;;;11.27;3.33;;;11.80;99.90;;;;;;5021380;28;20069;-69
2021/04/05 09:03:51;;;;;;;8.18;3.40;;;12.00;99.90;;;;;;5025161;28;20028;-73
2021/04/05 09:06:25;;;;;;;5.28;3.10;;;12.20;99.90;;;;;;5021776;28;20022;-74
2021/04/05 09:08:51;;;;;;;5.80;4.13;;;12.20;99.90;;;;;;5013914;28;20582;-73
2021/04/05 09:11:19;;;;;;;5.55;3.17;;;12.30;99.90;;;;;;5011361;28;20113;-74
2021/04/05 09:13:47;;;;;;;8.50;3.72;;;12.40;99.90;;;;;;5018347;28;20040;-72
2021/04/05 09:16:22;;;;;;;6.80;2.97;;;12.40;99.90;;;;;;4996587;28;20476;-73
2021/04/05 09:19:27;;;;;;;7.40;3.20;;;12.50;99.90;;;;;;5021113;28;20034;-74
2021/04/05 09:22:30;;;;;;;5.20;2.38;;;12.40;99.90;;;;;;5016223;28;20026;-73
2021/04/05 09:25:09;;;;;;;5.60;2.60;;;12.70;99.90;;;;;;5016853;28;20022;-72
2021/04/05 09:27:57;;;;;;;3.35;2.45;;;12.70;99.90;;;;;;5020463;28;20068;-70
2021/04/05 09:30:50;;;;;;;3.85;3.17;;;12.80;99.90;;;;;;5024209;28;20087;-75
2021/04/05 09:33:44;;;;;;;5.03;3.55;;;12.80;99.90;;;;;;5022221;28;20029;-69
2021/04/05 09:36:33;;;;;;;6.55;3.55;;;12.80;99.90;;;;;;5015453;28;20466;-69
2021/04/05 09:39:11;;;;;;;8.02;3.33;;;12.80;99.90;;;;;;5019737;28;20477;-71
2021/04/05 09:42:04;;;;;;;4.22;3.17;;;12.80;99.90;;;;;;4984294;28;20057;-71
2021/04/05 09:44:36;;;;;;;5.60;3.85;;;12.80;99.90;;;;;;5011429;28;20026;-73
2021/04/05 09:47:23;;;;;;;4.80;3.63;;;12.60;99.90;;;;;;5019876;28;20112;-72
2021/04/05 09:50:18;;;;;;;6.30;4.25;;;12.60;99.90;;;;;;5017937;28;20026;-71
2021/04/05 09:53:14;;;;;;;9.52;4.82;;;12.50;99.90;;;;;;4980728;28;20125;-71
2021/04/05 09:55:58;;;;;;;6.50;3.97;;;12.40;99.90;;;;;;5021288;28;20079;-71
2021/04/05 09:58:33;;;;;;;8.63;2.97;;;12.40;99.90;;;;;;5008612;28;20028;-72
2021/04/05 10:01:34;;;;;;;4.40;3.28;;;12.40;99.90;;;;;;5019611;28;20049;-74
2021/04/05 10:04:12;;;;;;;11.13;4.07;;;12.50;99.90;;;;;;4995433;28;20041;-71
2021/04/05 10:06:39;;;;;;;4.18;3.40;;;12.30;99.90;;;;;;5014668;28;20052;-71
2021/04/05 10:09:06;;;;;;;4.75;3.65;;;12.20;99.90;;;;;;5021303;28;20034;-70
2021/04/05 10:11:38;;;;;;;3.65;3.35;;;12.30;99.90;;;;;;5027433;28;20109;-72
2021/04/05 10:14:06;;;;;;;4.53;4.13;;;12.20;99.90;;;;;;5007126;28;20052;-71
2021/04/05 10:16:35;;;;;;;5.30;3.80;;;12.10;99.90;;;;;;5018899;28;20101;-72
2021/04/05 10:19:13;;;;;;;5.82;3.55;;;12.00;99.90;;;;;;5021146;28;20463;-71
2021/04/05 10:21:47;;;;;;;7.32;3.35;;;12.00;99.90;;;;;;5016865;28;20026;-71
2021/04/05 10:24:14;;;;;;;9.88;4.82;;;12.00;99.90;;;;;;5020848;28;20022;-70
2021/04/05 10:26:42;;;;;;;7.30;4.82;;;12.00;99.90;;;;;;5004039;28;20026;-74
2021/04/05 10:29:13;;;;;;;4.57;4.15;;;12.00;99.90;;;;;;5021292;28;20107;-71
2021/04/05 10:31:39;;;;;;;7.53;5.50;;;12.10;99.90;;;;;;5025688;28;20134;-71
2021/04/05 10:34:07;;;;;;;6.13;5.53;;;12.00;99.90;;;;;;5014260;28;20430;-73
2021/04/05 10:36:46;;;;;;;6.20;4.13;;;12.00;99.90;;;;;;5014713;28;20037;-69
2021/04/05 10:39:13;;;;;;;5.97;5.38;;;12.10;99.90;;;;;;5016792;28;20030;-69
2021/04/05 10:41:57;;;;;;;5.85;5.25;;;11.90;99.90;;;;;;5015448;28;20022;-71
2021/04/05 10:44:24;;;;;;;5.70;4.95;;;11.70;99.90;;;;;;5020263;28;20029;-71
2021/04/05 10:46:57;;;;;;;5.43;4.10;;;11.70;99.90;;;;;;5008672;28;20484;-71
2021/04/05 10:49:29;;;;;;;5.45;4.50;;;11.60;99.90;;;;;;5013352;28;20391;-70
2021/04/05 10:52:14;;;;;;;9.27;6.78;;;11.60;99.90;;;;;;5010396;28;20424;-72
2021/04/05 10:54:49;;;;;;;6.68;4.32;;;11.70;99.90;;;;;;4995243;28;20046;-71
2021/04/05 10:57:39;;;;;;;8.00;5.32;;;11.70;99.90;;;;;;5017077;28;20036;-71
2021/04/05 11:00:14;;;;;;;10.52;5.03;;;11.70;99.90;;;;;;5022102;28;20523;-73
2021/04/05 11:02:46;;;;;;;6.28;5.68;;;11.50;99.90;;;;;;5017939;28;20036;-71
2021/04/05 11:05:34;;;;;;;5.05;4.55;;;11.60;99.90;;;;;;5024490;28;20040;-72
2021/04/05 11:08:03;;;;;;;8.40;4.75;;;11.70;99.90;;;;;;5008966;28;20033;-74
2021/04/05 11:10:31;;;;;;;7.32;4.80;;;11.70;99.90;;;;;;5019312;28;20438;-72
2021/04/05 11:13:16;;;;;;;6.28;4.63;;;11.70;99.90;;;;;;5008037;28;20037;-72
2021/04/05 11:15:46;;;;;;;6.03;4.68;;;11.60;99.90;;;;;;5008225;28;20028;-71
2021/04/05 11:18:15;;;;;;;8.43;5.43;;;11.70;99.90;;;;;;5022849;28;20383;-72
2021/04/05 11:20:43;;;;;;;9.82;4.20;;;11.90;99.90;;;;;;5006195;28;20065;-71
2021/04/05 11:23:16;;;;;;;8.07;6.60;;;12.00;99.90;;;;;;5003876;28;20018;-70
2021/04/05 11:25:44;;;;;;;8.63;4.80;;;11.90;99.90;;;;;;5019482;28;20021;-70
2021/04/05 11:28:23;;;;;;;8.10;5.32;;;12.00;99.90;;;;;;5008981;28;20025;-75
2021/04/05 11:30:56;;;;;;;5.05;4.40;;;11.90;99.90;;;;;;5009177;28;20030;-72
2021/04/05 11:33:29;;;;;;;6.50;4.40;;;12.00;99.90;;;;;;5016484;28;20025;-73
2021/04/05 11:35:57;;;;;;;7.57;5.13;;;12.00;99.90;;;;;;5016329;28;20034;-72
2021/04/05 11:38:23;;;;;;;9.18;6.40;;;12.00;99.90;;;;;;5001110;28;20061;-71
2021/04/05 11:40:56;;;;;;;8.10;5.78;;;11.90;99.90;;;;;;5008313;28;20030;-70
2021/04/05 11:43:29;;;;;;;6.05;5.18;;;11.90;99.90;;;;;;5018427;28;20040;-70
2021/04/05 11:46:03;;;;;;;5.30;3.78;;;11.80;99.90;;;;;;5017416;28;20510;-70
2021/04/05 11:48:30;;;;;;;6.60;4.45;;;11.90;99.90;;;;;;5016236;28;20029;-70
2021/04/05 11:50:56;;;;;;;7.97;4.85;;;11.90;99.90;;;;;;5025557;28;20044;-72
2021/04/05 11:53:32;;;;;;;4.18;3.88;;;11.90;99.90;;;;;;5019196;28;20726;-73
2021/04/05 11:56:16;;;;;;;4.13;3.70;;;11.90;99.90;;;;;;5018980;28;20592;-69
2021/04/05 11:58:56;;;;;;;7.45;4.00;;;11.90;99.90;;;;;;5021847;28;20466;-70
2021/04/05 12:01:24;;;;;;;5.93;5.07;;;11.80;99.90;;;;;;5017338;28;20048;-70
2021/04/05 12:04:02;;;;;;;11.35;6.30;;;11.80;99.90;;;;;;5015487;28;20122;-72
2021/04/05 12:06:41;;;;;;;5.40;4.25;;;11.90;99.90;;;;;;4998135;28;20052;-71
2021/04/05 12:09:25;;;;;;;8.85;6.40;;;11.90;99.90;;;;;;5014725;28;20052;-72
2021/04/05 12:12:02;;;;;;;11.75;5.72;;;12.20;99.90;;;;;;5021962;28;20030;-72
2021/04/05 12:14:30;;;;;;;5.50;4.53;;;12.30;99.90;;;;;;5007524;28;20029;-70
2021/04/05 12:16:59;;;;;;;4.40;3.95;;;12.10;99.90;;;;;;5020948;28;20406;-73
2021/04/05 12:19:44;;;;;;;6.20;4.45;;;12.10;99.90;;;;;;5010155;28;20503;-70
2021/04/05 12:22:11;;;;;;;6.72;4.80;;;12.10;99.90;;;;;;5014031;28;20061;-69
2021/04/05 12:24:41;;;;;;;6.90;3.50;;;12.10;99.90;;;;;;5017963;28;20026;-69
2021/04/05 12:27:09;;;;;;;7.05;4.03;;;12.10;99.90;;;;;;5009670;28;20026;-70
2021/04/05 12:29:37;;;;;;;4.00;3.53;;;12.10;99.90;;;;;;5013048;28;20410;-71
2021/04/05 12:32:05;;;;;;;3.90;3.30;;;12.20;99.90;;;;;;5019163;28;20026;-70
2021/04/05 12:34:33;;;;;;;4.57;2.88;;;12.20;99.90;;;;;;5016413;28;20021;-71
2021/04/05 12:37:02;;;;;;;6.95;3.03;;;12.20;99.90;;;;;;5010298;28;20473;-70
2021/04/05 12:39:31;;;;;;;6.80;2.00;;;12.40;99.90;;;;;;5013269;28;20025;-70
2021/04/05 12:41:57;;;;;;;2.33;2.13;;;12.40;99.90;;;;;;5014350;28;20423;-70
2021/04/05 12:44:31;;;;;;;2.88;1.50;;;12.50;99.90;;;;;;5004403;28;20025;-70
2021/04/05 12:47:02;;;;;;;1.85;1.75;;;12.60;99.90;;;;;;5018012;28;20584;-70
2021/04/05 12:49:31;;;;;;;2.33;1.57;;;12.60;99.90;;;;;;5016549;28;20057;-70
2021/04/05 12:52:04;;;;;;;2.97;1.73;;;12.80;99.90;;;;;;5016859;28;20458;-71
2021/04/05 12:54:34;;;;;;;1.92;1.60;;;12.90;99.90;;;;;;4990346;28;20030;-73
2021/04/05 12:57:04;;;;;;;2.30;1.83;;;13.00;99.90;;;;;;5013437;28;20053;-70
2021/04/05 12:59:30;;;;;;;2.65;1.45;;;12.90;99.90;;;;;;5014726;28;20538;-73
2021/04/05 13:02:27;;;;;;;7.25;1.38;;;12.90;99.90;;;;;;5020582;28;20703;-74
2021/04/05 13:05:00;;;;;;;2.85;2.20;;;12.80;99.90;;;;;;4992745;28;20068;-71
2021/04/05 13:07:49;;;;;;;1.90;1.70;;;12.80;99.90;;;;;;5014364;28;20522;-71
2021/04/05 13:10:21;;;;;;;2.92;1.92;;;12.80;99.90;;;;;;5008876;28;20464;-72
2021/04/05 13:12:49;;;;;;;;;;;12.80;99.90;;;;;;5020819;28;20479;-70
2021/04/05 13:15:20;;;;;;;2.65;1.52;;;13.00;99.90;;;;;;5020358;28;19907;-71
2021/04/05 13:17:50;;;;;;;2.15;1.58;;;13.20;99.90;;;;;;5021607;28;20099;-72
2021/04/05 13:20:31;;;;;;;2.17;1.42;;;13.20;99.90;;;;;;5023590;28;20017;-72
2021/04/05 13:23:01;;;;;;;1.63;1.52;;;13.10;99.90;;;;;;5027175;28;20047;-72
2021/04/05 13:25:49;;;;;;;5.38;1.90;;;13.20;99.90;;;;;;5010152;28;20029;-71
2021/04/05 13:28:22;;;;;;;5.13;1.73;;;13.40;99.90;;;;;;5021598;28;20030;-71
2021/04/05 13:30:48;;;;;;;;;;;13.50;99.90;;;;;;5005340;28;20131;-72
2021/04/05 13:33:15;;;;;;;2.30;2.10;;;13.40;99.90;;;;;;5013821;28;20295;-71
2021/04/05 13:35:41;;;;;;;3.63;1.85;;;13.40;99.90;;;;;;5002530;28;20025;-70